Time;durP1;ratioP1;P1;durP2;ratioP2;P2;SDS_P1;SDS_P2;PMS_P1;PMS_P2;Temp;Humidity;BMP_temperature;BMP_pressure;BME280_temperature;BME280_humidity;BME280_pressure;Samples;Min_cycle;Max_cycle;Signal;HPM_P1;HPM_P2
2021/09/06 00:01:20;;;;;;;15.52;7.47;;;15.50;99.90;;;;;;5080650;28;20021;-77
2021/09/06 00:03:46;;;;;;;13.73;7.22;;;15.40;99.90;;;;;;5054061;28;20064;-77
2021/09/06 00:06:12;;;;;;;14.52;7.75;;;15.40;99.90;;;;;;5055900;28;20108;-77
2021/09/06 00:08:37;;;;;;;11.38;7.63;;;15.40;99.90;;;;;;5054429;28;20082;-76
2021/09/06 00:11:11;;;;;;;12.00;7.75;;;15.40;99.90;;;;;;5055185;28;20024;-77
2021/09/06 00:13:38;;;;;;;14.02;8.27;;;15.50;99.90;;;;;;5054479;28;20527;-76
2021/09/06 00:16:04;;;;;;;11.05;7.85;;;15.40;99.90;;;;;;5055288;28;20052;-76
2021/09/06 00:18:30;;;;;;;18.95;7.70;;;15.30;99.90;;;;;;5056791;28;20020;-77
2021/09/06 00:20:57;;;;;;;8.32;7.38;;;15.20;99.90;;;;;;5055219;28;20036;-76
2021/09/06 00:23:26;;;;;;;8.05;7.22;;;15.20;99.90;;;;;;5055350;28;20021;-76
2021/09/06 00:25:51;;;;;;;10.65;7.47;;;15.10;99.90;;;;;;5053367;28;20112;-78
2021/09/06 00:28:17;;;;;;;10.45;7.38;;;15.10;99.90;;;;;;5078662;28;20104;-77
2021/09/06 00:30:43;;;;;;;9.10;7.38;;;15.00;99.90;;;;;;5054656;28;20029;-76
2021/09/06 00:33:08;;;;;;;11.43;7.57;;;14.90;99.90;;;;;;5053633;28;20032;-77
2021/09/06 00:35:34;;;;;;;8.98;7.75;;;14.90;99.90;;;;;;5053025;28;20503;-76
2021/09/06 00:38:00;;;;;;;11.75;7.35;;;14.90;99.90;;;;;;5054950;28;20029;-77
2021/09/06 00:40:25;;;;;;;13.57;8.27;;;14.90;99.90;;;;;;5051191;28;20101;-77
2021/09/06 00:42:51;;;;;;;8.75;7.63;;;14.90;99.90;;;;;;5050400;28;20025;-76
2021/09/06 00:45:17;;;;;;;8.52;7.40;;;15.00;99.90;;;;;;5041038;28;20512;-75
2021/09/06 00:47:43;;;;;;;8.23;7.07;;;15.00;99.90;;;;;;5056396;28;20475;-74
2021/09/06 00:50:12;;;;;;;8.60;7.65;;;14.90;99.90;;;;;;5056902;28;20384;-74
2021/09/06 00:52:40;;;;;;;11.07;7.20;;;14.80;99.90;;;;;;5054937;28;20029;-75
2021/09/06 00:55:07;;;;;;;10.25;6.72;;;14.80;99.90;;;;;;5061631;28;20094;-74
2021/09/06 00:57:32;;;;;;;7.65;6.85;;;14.80;99.90;;;;;;5059606;28;20124;-74
2021/09/06 00:59:58;;;;;;;7.20;6.47;;;14.80;99.90;;;;;;5060920;28;20479;-77
2021/09/06 01:02:24;;;;;;;9.93;7.38;;;14.80;99.90;;;;;;5060359;28;20031;-76
2021/09/06 01:04:50;;;;;;;10.27;7.22;;;14.70;99.90;;;;;;5072958;28;20024;-78
2021/09/06 01:07:15;;;;;;;9.52;7.53;;;14.70;99.90;;;;;;5057556;28;20033;-76
2021/09/06 01:09:41;;;;;;;7.22;6.53;;;14.70;99.90;;;;;;5051324;28;20107;-74
2021/09/06 01:12:07;;;;;;;17.50;7.57;;;14.70;99.90;;;;;;5055489;28;20151;-74
2021/09/06 01:14:33;;;;;;;8.35;7.55;;;14.70;99.90;;;;;;5069130;28;20090;-74
2021/09/06 01:16:59;;;;;;;8.50;6.45;;;14.70;99.90;;;;;;5057355;28;20498;-74
2021/09/06 01:19:24;;;;;;;8.68;7.70;;;14.60;99.90;;;;;;5071742;28;20089;-73
2021/09/06 01:21:50;;;;;;;10.77;7.10;;;14.50;99.90;;;;;;5062432;28;20537;-74
2021/09/06 01:24:17;;;;;;;10.57;9.43;;;14.50;99.90;;;;;;5069167;28;20038;-75
2021/09/06 01:26:45;;;;;;;10.00;7.53;;;14.50;99.90;;;;;;5064014;28;20387;-75
2021/09/06 01:29:10;;;;;;;8.82;7.50;;;14.50;99.90;;;;;;5065050;28;20032;-73
2021/09/06 01:31:36;;;;;;;7.45;6.65;;;14.50;99.90;;;;;;5060532;28;20036;-74
2021/09/06 01:34:01;;;;;;;10.38;7.72;;;14.50;99.90;;;;;;5066970;28;20082;-74
2021/09/06 01:36:27;;;;;;;10.00;7.05;;;14.50;99.90;;;;;;5055978;28;20037;-75
2021/09/06 01:38:52;;;;;;;9.50;7.28;;;14.50;99.90;;;;;;5061198;28;20127;-74
2021/09/06 01:41:18;;;;;;;11.07;7.68;;;14.50;99.90;;;;;;5068670;28;20059;-74
2021/09/06 01:43:43;;;;;;;9.15;7.18;;;14.50;99.90;;;;;;5065182;28;20035;-74
2021/09/06 01:46:09;;;;;;;14.15;7.75;;;14.40;99.90;;;;;;5062438;28;20033;-74
2021/09/06 01:48:35;;;;;;;7.55;6.80;;;14.40;99.90;;;;;;5064364;28;20025;-75
2021/09/06 01:51:00;;;;;;;9.75;7.45;;;14.40;99.90;;;;;;5068117;28;20027;-74
2021/09/06 01:53:26;;;;;;;11.70;8.02;;;14.40;99.90;;;;;;5056734;28;20411;-73
2021/09/06 01:55:51;;;;;;;9.13;7.93;;;14.40;99.90;;;;;;5058215;28;20396;-75
2021/09/06 01:58:17;;;;;;;10.48;7.20;;;14.30;99.90;;;;;;5063224;28;20032;-75
2021/09/06 02:00:42;;;;;;;8.77;7.78;;;14.20;99.90;;;;;;5064589;28;20032;-74
2021/09/06 02:03:08;;;;;;;8.52;7.38;;;14.20;99.90;;;;;;5064158;28;20476;-75
2021/09/06 02:05:33;;;;;;;12.32;7.53;;;14.10;99.90;;;;;;5066090;28;20464;-75
2021/09/06 02:07:59;;;;;;;9.80;7.60;;;14.10;99.90;;;;;;5058270;28;20025;-74
2021/09/06 02:10:25;;;;;;;8.40;7.50;;;14.10;99.90;;;;;;5061351;28;20025;-75
2021/09/06 02:12:50;;;;;;;9.20;8.10;;;14.10;99.90;;;;;;5072930;28;20048;-75
2021/09/06 02:15:16;;;;;;;12.00;8.48;;;14.10;99.90;;;;;;5058620;28;20044;-75
2021/09/06 02:17:41;;;;;;;9.82;8.82;;;14.10;99.90;;;;;;5056096;28;20569;-74
2021/09/06 02:20:07;;;;;;;9.30;7.80;;;14.10;99.90;;;;;;5062578;28;20034;-74
2021/09/06 02:22:33;;;;;;;16.25;8.30;;;14.10;99.90;;;;;;5063209;28;20109;-74
2021/09/06 02:24:58;;;;;;;14.88;8.95;;;14.10;99.90;;;;;;5059429;28;20157;-74
2021/09/06 02:27:24;;;;;;;9.38;7.65;;;14.10;99.90;;;;;;5061324;28;20040;-74
2021/09/06 02:29:49;;;;;;;8.48;7.60;;;14.00;99.90;;;;;;5065728;28;20021;-73
2021/09/06 02:32:15;;;;;;;11.55;8.20;;;14.00;99.90;;;;;;5060317;28;20028;-74
2021/09/06 02:34:41;;;;;;;8.80;7.22;;;14.00;99.90;;;;;;5066164;28;20104;-74
2021/09/06 02:37:06;;;;;;;10.02;8.52;;;14.00;99.90;;;;;;5061092;28;20123;-74
2021/09/06 02:39:32;;;;;;;10.07;8.45;;;14.00;99.90;;;;;;5060489;28;20423;-74
2021/09/06 02:42:00;;;;;;;13.10;9.52;;;13.90;99.90;;;;;;5065375;28;20369;-74
2021/09/06 02:44:28;;;;;;;12.52;8.02;;;14.00;99.90;;;;;;5067092;28;20099;-74
2021/09/06 02:46:55;;;;;;;12.52;8.73;;;13.90;99.90;;;;;;5064828;28;20522;-74
2021/09/06 02:49:20;;;;;;;11.25;8.13;;;13.80;99.90;;;;;;5066994;28;20025;-74
2021/09/06 02:51:46;;;;;;;12.90;8.50;;;13.90;99.90;;;;;;5057687;28;20492;-74
2021/09/06 02:54:11;;;;;;;9.73;8.15;;;13.90;99.90;;;;;;5063448;28;20027;-75
2021/09/06 02:56:37;;;;;;;15.57;9.30;;;13.90;99.90;;;;;;5052132;28;20025;-75
2021/09/06 02:59:03;;;;;;;11.50;8.77;;;13.90;99.90;;;;;;5062408;28;20045;-76
2021/09/06 03:01:28;;;;;;;10.77;8.25;;;13.90;99.90;;;;;;5049610;28;20443;-74
2021/09/06 03:03:54;;;;;;;12.05;8.20;;;13.80;99.90;;;;;;5062011;28;20025;-74
2021/09/06 03:06:19;;;;;;;12.60;8.23;;;13.80;99.90;;;;;;5060737;28;20025;-75
2021/09/06 03:08:45;;;;;;;14.02;8.13;;;13.70;99.90;;;;;;5063295;28;20016;-74
2021/09/06 03:11:10;;;;;;;9.68;8.43;;;13.70;99.90;;;;;;5063126;28;20031;-75
2021/09/06 03:13:36;;;;;;;11.07;8.48;;;13.60;99.90;;;;;;5054678;28;20027;-75
2021/09/06 03:16:01;;;;;;;16.38;8.40;;;13.60;99.90;;;;;;5063078;28;20099;-75
2021/09/06 03:18:27;;;;;;;11.45;7.75;;;13.50;99.90;;;;;;5061207;28;20503;-75
2021/09/06 03:20:52;;;;;;;9.07;7.65;;;13.50;99.90;;;;;;5059395;28;20032;-74
2021/09/06 03:23:18;;;;;;;12.05;9.05;;;13.40;99.90;;;;;;5061768;28;20025;-75
2021/09/06 03:25:43;;;;;;;8.93;7.93;;;13.50;99.90;;;;;;5061574;28;20108;-75
2021/09/06 03:28:09;;;;;;;9.95;8.95;;;13.60;99.90;;;;;;5062914;28;20024;-73
2021/09/06 03:30:35;;;;;;;10.38;8.63;;;13.60;99.90;;;;;;5059058;28;20053;-74
2021/09/06 03:33:00;;;;;;;9.95;8.15;;;13.50;99.90;;;;;;5057807;28;20028;-75
2021/09/06 03:35:26;;;;;;;15.30;8.85;;;13.50;99.90;;;;;;5062134;28;20237;-75
2021/09/06 03:37:52;;;;;;;11.77;8.45;;;13.40;99.90;;;;;;5063407;28;20035;-75
2021/09/06 03:40:17;;;;;;;12.93;9.98;;;13.40;99.90;;;;;;5059439;28;20036;-75
2021/09/06 03:42:43;;;;;;;11.38;8.63;;;13.40;99.90;;;;;;5057536;28;20056;-74
2021/09/06 03:45:09;;;;;;;9.70;7.32;;;13.40;99.90;;;;;;5060302;28;20476;-76
2021/09/06 03:47:34;;;;;;;11.15;8.38;;;13.60;99.90;;;;;;5063513;28;20037;-75
2021/09/06 03:50:00;;;;;;;15.63;8.77;;;13.60;99.90;;;;;;5063594;28;20492;-75
2021/09/06 03:52:25;;;;;;;13.90;9.80;;;13.50;99.90;;;;;;5053230;28;20492;-75
2021/09/06 03:54:51;;;;;;;11.20;8.43;;;13.50;99.90;;;;;;5059080;28;20171;-74
2021/09/06 03:57:17;;;;;;;11.85;8.88;;;13.40;99.90;;;;;;5060227;28;20025;-75
2021/09/06 03:59:42;;;;;;;10.43;8.52;;;13.30;99.90;;;;;;5065858;28;20009;-74
2021/09/06 04:02:08;;;;;;;11.35;8.68;;;13.20;99.90;;;;;;5059408;28;20027;-74
2021/09/06 04:04:34;;;;;;;10.32;8.30;;;13.20;99.90;;;;;;5066669;28;20029;-75
2021/09/06 04:06:59;;;;;;;9.88;8.40;;;13.10;99.90;;;;;;5058832;28;20040;-74
2021/09/06 04:09:25;;;;;;;11.10;8.02;;;13.10;99.90;;;;;;5052041;28;20052;-76
2021/09/06 04:11:51;;;;;;;11.85;8.73;;;13.10;99.90;;;;;;5058519;28;20032;-75
2021/09/06 04:14:17;;;;;;;9.52;8.52;;;13.00;99.90;;;;;;5066585;28;20021;-75
2021/09/06 04:16:43;;;;;;;13.85;8.45;;;13.00;99.90;;;;;;5059934;28;20025;-75
2021/09/06 04:19:09;;;;;;;13.18;8.85;;;13.00;99.90;;;;;;5057701;28;20029;-74
2021/09/06 04:21:34;;;;;;;13.27;8.45;;;13.00;99.90;;;;;;5058321;28;20078;-74
2021/09/06 04:24:00;;;;;;;9.13;8.13;;;12.90;99.90;;;;;;5058672;28;20025;-74
2021/09/06 04:26:25;;;;;;;11.65;8.55;;;13.00;99.90;;;;;;5058203;28;20032;-75
2021/09/06 04:28:51;;;;;;;11.98;9.23;;;13.00;99.90;;;;;;5058336;28;20036;-74
2021/09/06 04:31:17;;;;;;;9.18;8.07;;;13.00;99.90;;;;;;5062354;28;20165;-74
2021/09/06 04:33:43;;;;;;;14.85;8.45;;;13.00;99.90;;;;;;5064546;28;20025;-74
2021/09/06 04:36:08;;;;;;;10.05;8.88;;;12.90;99.90;;;;;;5066399;28;20099;-73
2021/09/06 04:38:35;;;;;;;10.73;9.57;;;12.90;99.90;;;;;;5064242;28;20040;-74
2021/09/06 04:41:00;;;;;;;13.02;8.18;;;13.00;99.90;;;;;;5062321;28;20049;-75
2021/09/06 04:43:26;;;;;;;13.15;9.43;;;13.00;99.90;;;;;;5064144;28;20056;-75
2021/09/06 04:45:51;;;;;;;12.15;8.77;;;12.90;99.90;;;;;;5067327;28;20223;-74
2021/09/06 04:48:17;;;;;;;10.70;8.05;;;12.90;99.90;;;;;;5062727;28;20392;-75
2021/09/06 04:50:42;;;;;;;9.48;8.30;;;12.80;99.90;;;;;;5065925;28;20510;-74
2021/09/06 04:53:08;;;;;;;13.55;9.88;;;12.80;99.90;;;;;;5069305;28;20418;-73
2021/09/06 04:55:34;;;;;;;12.20;9.70;;;12.80;99.90;;;;;;5053278;28;20431;-74
2021/09/06 04:57:59;;;;;;;10.82;9.23;;;12.80;99.90;;;;;;5061274;28;20059;-73
2021/09/06 05:00:25;;;;;;;14.68;8.98;;;12.80;99.90;;;;;;5059477;28;20041;-74
2021/09/06 05:02:51;;;;;;;11.68;8.95;;;12.90;99.90;;;;;;5053630;28;20025;-74
2021/09/06 05:05:16;;;;;;;10.52;9.30;;;13.10;99.90;;;;;;5061833;28;20021;-74
2021/09/06 05:07:43;;;;;;;15.15;8.35;;;13.40;99.90;;;;;;5057776;28;20364;-75
2021/09/06 05:10:09;;;;;;;11.23;8.15;;;13.60;99.90;;;;;;5065343;28;20020;-74
2021/09/06 05:12:34;;;;;;;10.13;7.70;;;13.80;99.90;;;;;;5057700;28;20066;-74
2021/09/06 05:15:00;;;;;;;9.63;8.20;;;14.00;99.90;;;;;;5066398;28;20151;-73
2021/09/06 05:17:25;;;;;;;8.38;7.05;;;14.20;99.90;;;;;;5059511;28;20025;-75
2021/09/06 05:19:51;;;;;;;13.50;7.88;;;14.40;99.90;;;;;;5064202;28;20032;-75
2021/09/06 05:22:16;;;;;;;11.65;7.55;;;14.60;99.90;;;;;;5065490;28;20061;-74
2021/09/06 05:24:42;;;;;;;8.52;6.80;;;14.80;99.90;;;;;;5063015;28;20020;-75
2021/09/06 05:27:07;;;;;;;13.07;8.18;;;15.20;99.90;;;;;;5063803;28;20034;-74
2021/09/06 05:29:34;;;;;;;9.18;7.43;;;15.40;99.90;;;;;;5060800;28;20029;-74
2021/09/06 05:31:59;;;;;;;10.80;7.80;;;15.70;99.90;;;;;;5056015;28;20039;-76
2021/09/06 05:34:25;;;;;;;9.32;6.88;;;16.20;99.90;;;;;;5063405;28;20391;-74
2021/09/06 05:36:51;;;;;;;9.13;7.22;;;16.80;99.90;;;;;;5066076;28;20037;-74
2021/09/06 05:39:17;;;;;;;10.60;7.53;;;16.50;99.90;;;;;;5059520;28;20083;-74
2021/09/06 05:41:44;;;;;;;10.88;8.50;;;16.30;99.90;;;;;;5060791;28;20360;-74
2021/09/06 05:44:10;;;;;;;11.40;7.45;;;16.20;99.90;;;;;;5061705;28;20014;-76
2021/09/06 05:46:36;;;;;;;8.75;6.47;;;16.60;99.90;;;;;;5066745;28;20036;-75
2021/09/06 05:49:02;;;;;;;8.98;7.60;;;16.70;99.90;;;;;;5065161;28;20157;-75
2021/09/06 05:51:28;;;;;;;7.55;6.72;;;17.10;99.90;;;;;;5058702;28;20017;-74
2021/09/06 05:53:53;;;;;;;8.52;7.07;;;17.50;99.90;;;;;;5061794;28;20017;-74
2021/09/06 05:56:20;;;;;;;11.00;7.30;;;17.50;99.90;;;;;;5061637;28;20052;-74
2021/09/06 05:58:46;;;;;;;9.73;7.88;;;17.40;99.90;;;;;;5064807;28;20511;-75
2021/09/06 06:01:12;;;;;;;9.43;7.47;;;17.00;99.90;;;;;;5063631;28;20425;-74
2021/09/06 06:03:38;;;;;;;8.82;7.85;;;16.80;99.90;;;;;;5073033;28;20146;-73
2021/09/06 06:06:04;;;;;;;10.05;7.75;;;16.10;99.90;;;;;;5065090;28;20124;-74
2021/09/06 06:08:29;;;;;;;9.55;8.00;;;16.10;99.90;;;;;;5061283;28;20036;-72
2021/09/06 06:10:55;;;;;;;15.73;8.35;;;16.00;99.90;;;;;;5060984;28;20023;-72
2021/09/06 06:13:21;;;;;;;14.40;7.82;;;15.90;99.90;;;;;;5060883;28;20111;-72
2021/09/06 06:15:46;;;;;;;10.02;7.75;;;15.60;99.90;;;;;;5064215;28;20082;-73
2021/09/06 06:18:12;;;;;;;10.10;8.82;;;15.60;99.90;;;;;;5063816;28;20056;-73
2021/09/06 06:20:37;;;;;;;12.13;8.25;;;15.30;99.90;;;;;;5063837;28;20404;-72
2021/09/06 06:23:03;;;;;;;9.07;7.93;;;15.40;99.90;;;;;;5062430;28;20021;-74
2021/09/06 06:25:28;;;;;;;8.77;7.10;;;15.40;99.90;;;;;;5060817;28;20104;-72
2021/09/06 06:27:54;;;;;;;16.38;9.30;;;15.40;99.90;;;;;;5058638;28;20068;-71
2021/09/06 06:30:20;;;;;;;9.68;8.70;;;15.40;99.90;;;;;;5056891;28;20439;-72
2021/09/06 06:32:46;;;;;;;10.50;8.05;;;15.70;99.90;;;;;;5063640;28;20028;-72
2021/09/06 06:35:12;;;;;;;10.43;8.63;;;15.80;99.90;;;;;;5062930;28;20031;-72
2021/09/06 06:37:37;;;;;;;9.88;7.93;;;16.00;99.90;;;;;;5061114;28;20060;-72
2021/09/06 06:40:04;;;;;;;9.82;8.15;;;16.00;99.90;;;;;;5059701;28;20017;-72
2021/09/06 06:42:30;;;;;;;9.10;7.63;;;16.20;99.90;;;;;;5053543;28;20036;-74
2021/09/06 06:44:56;;;;;;;9.00;8.10;;;16.30;99.90;;;;;;5059686;28;20076;-73
2021/09/06 06:47:21;;;;;;;9.25;8.35;;;16.30;99.90;;;;;;5069906;28;20114;-72
2021/09/06 06:49:47;;;;;;;9.77;8.32;;;16.50;99.90;;;;;;5063563;28;20028;-74
2021/09/06 06:52:13;;;;;;;10.02;8.82;;;16.40;99.90;;;;;;5063645;28;20075;-72
2021/09/06 06:54:38;;;;;;;12.73;8.15;;;16.40;99.90;;;;;;5059759;28;20017;-73
2021/09/06 06:57:06;;;;;;;9.30;8.25;;;16.60;99.90;;;;;;5054901;28;20374;-72
2021/09/06 06:59:32;;;;;;;9.02;7.85;;;16.50;99.90;;;;;;5061165;28;20025;-72
2021/09/06 07:01:58;;;;;;;9.30;8.40;;;16.80;99.90;;;;;;5053465;28;20021;-72
2021/09/06 07:04:23;;;;;;;12.80;8.00;;;16.90;99.90;;;;;;5051868;28;20105;-72
2021/09/06 07:06:49;;;;;;;13.82;8.30;;;17.00;99.90;;;;;;5058574;28;20484;-73
2021/09/06 07:09:14;;;;;;;7.95;6.88;;;17.10;99.90;;;;;;5058678;28;20366;-71
2021/09/06 07:11:40;;;;;;;11.07;7.03;;;17.20;99.90;;;;;;5047018;28;20028;-73
2021/09/06 07:14:06;;;;;;;11.63;8.30;;;17.30;99.90;;;;;;5058304;28;20475;-76
2021/09/06 07:16:31;;;;;;;8.52;7.57;;;17.30;99.90;;;;;;5052560;28;20026;-75
2021/09/06 07:18:57;;;;;;;10.75;7.18;;;17.30;99.90;;;;;;5092776;28;20025;-75
2021/09/06 07:21:22;;;;;;;11.57;7.22;;;17.30;99.90;;;;;;5052331;28;20021;-75
2021/09/06 07:23:48;;;;;;;8.52;7.35;;;17.50;99.90;;;;;;5056133;28;20021;-76
2021/09/06 07:26:14;;;;;;;8.35;7.43;;;17.60;99.90;;;;;;5061337;28;20146;-74
2021/09/06 07:28:40;;;;;;;10.70;7.50;;;17.70;99.90;;;;;;5060237;28;20151;-75
2021/09/06 07:31:05;;;;;;;9.65;7.40;;;17.80;99.90;;;;;;5060857;28;20066;-76
2021/09/06 07:33:31;;;;;;;14.15;8.07;;;17.90;99.90;;;;;;5060165;28;20430;-76
2021/09/06 07:35:56;;;;;;;9.40;8.25;;;18.10;99.90;;;;;;5058737;28;20039;-76
2021/09/06 07:38:23;;;;;;;7.97;7.22;;;18.20;99.90;;;;;;5060039;28;20438;-75
2021/09/06 07:40:49;;;;;;;12.90;7.90;;;18.20;99.90;;;;;;5055948;28;20021;-73
2021/09/06 07:43:14;;;;;;;12.35;9.00;;;18.40;99.90;;;;;;5055437;28;20414;-76
2021/09/06 07:45:41;;;;;;;9.88;7.75;;;18.60;99.90;;;;;;5055236;28;20025;-76
2021/09/06 07:48:07;;;;;;;13.63;7.97;;;18.50;99.90;;;;;;5056431;28;20047;-77
2021/09/06 07:50:32;;;;;;;8.13;7.05;;;18.60;99.90;;;;;;5059586;28;20491;-76
2021/09/06 07:52:58;;;;;;;14.95;7.88;;;18.80;99.90;;;;;;5060261;28;20086;-75
2021/09/06 07:55:24;;;;;;;9.10;8.20;;;18.90;99.90;;;;;;5067988;28;20047;-74
2021/09/06 07:57:49;;;;;;;10.13;8.13;;;18.90;99.90;;;;;;5053030;28;20396;-74
2021/09/06 08:00:15;;;;;;;8.98;7.32;;;19.00;99.90;;;;;;5050727;28;20025;-77
2021/09/06 08:02:50;;;;;;;13.75;8.10;;;19.00;99.90;;;;;;5047067;28;20078;-78
2021/09/06 08:05:24;;;;;;;9.45;7.50;;;18.80;99.90;;;;;;5048922;28;21087;-76
2021/09/06 08:07:49;;;;;;;10.18;8.25;;;18.90;99.90;;;;;;5052244;28;20136;-77
2021/09/06 08:10:16;;;;;;;8.90;7.40;;;19.10;99.90;;;;;;5055919;28;20524;-79
2021/09/06 08:12:41;;;;;;;8.82;7.30;;;19.30;99.90;;;;;;5052350;28;20090;-78
2021/09/06 08:15:08;;;;;;;8.27;7.35;;;19.20;99.90;;;;;;5072894;28;20635;-76
2021/09/06 08:17:35;;;;;;;11.10;8.13;;;19.40;99.90;;;;;;5062930;28;20123;-77
2021/09/06 08:20:06;;;;;;;10.25;6.93;;;19.50;99.90;;;;;;5064238;28;20020;-78
2021/09/06 08:22:33;;;;;;;9.27;8.02;;;19.50;99.90;;;;;;5097374;28;20040;-77
2021/09/06 08:25:00;;;;;;;13.15;7.60;;;19.80;99.90;;;;;;5057427;28;20410;-77
2021/09/06 08:27:25;;;;;;;11.98;8.10;;;19.90;99.90;;;;;;5058816;28;20032;-76
2021/09/06 08:29:51;;;;;;;9.05;6.85;;;20.00;99.90;;;;;;5068023;28;20028;-76
2021/09/06 08:32:17;;;;;;;9.35;8.23;;;19.90;99.90;;;;;;5064407;28;20029;-77
2021/09/06 08:34:42;;;;;;;11.10;7.80;;;20.10;99.90;;;;;;5074900;28;20031;-79
2021/09/06 08:37:08;;;;;;;9.50;7.43;;;20.30;99.90;;;;;;5066705;28;20520;-78
2021/09/06 08:39:33;;;;;;;18.05;7.57;;;20.50;99.90;;;;;;5072339;28;20030;-77
2021/09/06 08:42:00;;;;;;;7.80;6.82;;;20.60;99.90;;;;;;5068581;28;20433;-78
2021/09/06 08:44:26;;;;;;;11.32;6.82;;;20.70;99.90;;;;;;5063398;28;20033;-77
2021/09/06 08:46:57;;;;;;;8.02;7.20;;;20.70;99.90;;;;;;5063424;28;20310;-78
2021/09/06 08:49:23;;;;;;;9.10;8.15;;;20.80;99.90;;;;;;5071397;28;20442;-76
2021/09/06 08:51:48;;;;;;;9.50;6.55;;;20.80;99.90;;;;;;5064529;28;20033;-78
2021/09/06 08:54:14;;;;;;;11.05;6.45;;;20.70;99.90;;;;;;5072839;28;20025;-79
2021/09/06 08:56:40;;;;;;;10.73;6.75;;;20.90;99.90;;;;;;5066864;28;20028;-77
2021/09/06 08:59:06;;;;;;;7.15;6.45;;;21.00;99.90;;;;;;5071751;28;20029;-77
2021/09/06 09:01:37;;;;;;;9.65;6.38;;;21.00;99.90;;;;;;5058259;28;20036;-77
2021/09/06 09:04:23;;;;;;;11.98;6.57;;;21.30;99.90;;;;;;5064092;28;20021;-79
2021/09/06 09:06:54;;;;;;;9.45;5.40;;;21.40;99.90;;;;;;5058313;28;20025;-78
2021/09/06 09:09:29;;;;;;;;;;;21.60;99.90;;;;;;5056676;28;20106;-77
2021/09/06 09:12:16;;;;;;;6.97;6.28;;;21.70;99.90;;;;;;5071715;28;19908;-77
2021/09/06 09:14:50;;;;;;;8.38;6.03;;;21.70;99.90;;;;;;5057164;28;20056;-77
2021/09/06 09:17:16;;;;;;;7.03;6.32;;;21.80;99.90;;;;;;5061810;28;20438;-77
2021/09/06 09:19:42;;;;;;;7.30;5.72;;;21.70;99.90;;;;;;5062403;28;20017;-78
2021/09/06 09:22:20;;;;;;;7.10;6.38;;;21.80;99.90;;;;;;5072135;28;20025;-77
2021/09/06 09:25:15;;;;;;;6.32;5.68;;;22.00;99.90;;;;;;5068896;28;20021;-76
2021/09/06 09:27:45;;;;;;;6.90;5.35;;;22.00;99.90;;;;;;5023714;28;20040;-79
2021/09/06 09:30:27;;;;;;;10.45;6.32;;;22.20;99.90;;;;;;5067089;28;20021;-77
2021/09/06 09:33:13;;;;;;;7.75;6.40;;;22.30;99.90;;;;;;5072092;28;20375;-76
2021/09/06 09:35:39;;;;;;;6.88;5.82;;;22.40;99.90;;;;;;5063766;28;20408;-79
2021/09/06 09:38:09;;;;;;;7.03;5.70;;;22.60;99.90;;;;;;5062307;28;20108;-77
2021/09/06 09:40:37;;;;;;;8.93;6.07;;;22.70;99.90;;;;;;5071158;28;20024;-78
2021/09/06 09:43:03;;;;;;;6.20;5.43;;;22.80;99.90;;;;;;5061948;28;20047;-77
2021/09/06 09:45:29;;;;;;;6.68;5.78;;;22.70;99.90;;;;;;5060848;28;20017;-76
2021/09/06 09:47:57;;;;;;;6.80;6.15;;;22.80;99.90;;;;;;5055668;28;20047;-77
2021/09/06 09:50:24;;;;;;;10.43;6.40;;;22.90;99.90;;;;;;5066658;28;20024;-78
2021/09/06 09:52:55;;;;;;;6.43;5.82;;;23.20;99.90;;;;;;5059579;28;20113;-77
2021/09/06 09:55:22;;;;;;;6.60;5.57;;;23.40;99.90;;;;;;5064013;28;20032;-76
2021/09/06 09:57:47;;;;;;;7.53;5.88;;;23.30;99.90;;;;;;5058748;28;20495;-76
2021/09/06 10:00:14;;;;;;;6.40;5.75;;;23.40;99.90;;;;;;5053673;28;20074;-75
2021/09/06 10:02:49;;;;;;;6.50;5.47;;;23.60;99.90;;;;;;5055755;28;20081;-77
2021/09/06 10:05:16;;;;;;;7.65;5.72;;;23.70;99.90;;;;;;5061658;28;20025;-77
2021/09/06 10:07:46;;;;;;;6.45;5.50;;;23.60;99.90;;;;;;5068596;28;20032;-77
2021/09/06 10:10:19;;;;;;;7.25;5.97;;;23.80;99.90;;;;;;5064645;28;20021;-77
2021/09/06 10:12:47;;;;;;;10.05;6.53;;;23.90;99.90;;;;;;5068789;28;20084;-78
2021/09/06 10:15:13;;;;;;;8.57;6.15;;;23.80;99.90;;;;;;5065414;28;20055;-76
2021/09/06 10:17:48;;;;;;;7.85;5.70;;;23.70;99.90;;;;;;5069605;28;20369;-78
2021/09/06 10:20:13;;;;;;;8.18;6.10;;;24.00;99.90;;;;;;5065408;28;20013;-77
2021/09/06 10:22:40;;;;;;;8.50;5.57;;;24.20;99.90;;;;;;5072045;28;20017;-76
2021/09/06 10:25:09;;;;;;;7.15;5.68;;;24.20;99.90;;;;;;5065114;28;20502;-78
2021/09/06 10:27:37;;;;;;;8.00;5.72;;;24.20;99.90;;;;;;5066147;28;20108;-76
2021/09/06 10:30:08;;;;;;;6.97;5.53;;;24.00;99.90;;;;;;5064103;28;20048;-76
2021/09/06 10:32:49;;;;;;;6.53;5.55;;;24.10;99.90;;;;;;5055454;28;20044;-77
2021/09/06 10:35:14;;;;;;;7.75;5.32;;;24.10;99.90;;;;;;5063749;28;20032;-77
2021/09/06 10:37:40;;;;;;;8.25;5.55;;;24.20;99.90;;;;;;5067628;28;20051;-77
2021/09/06 10:40:09;;;;;;;7.55;6.10;;;24.50;99.90;;;;;;5063244;28;20096;-78
2021/09/06 10:42:36;;;;;;;6.57;5.63;;;24.80;99.20;;;;;;5066129;28;20043;-77
2021/09/06 10:45:04;;;;;;;6.18;5.57;;;24.90;98.50;;;;;;5057015;28;20013;-76
2021/09/06 10:47:38;;;;;;;8.13;5.93;;;24.90;98.20;;;;;;5055196;28;20127;-77
2021/09/06 10:50:16;;;;;;;6.40;5.80;;;24.50;98.30;;;;;;5064788;28;20499;-77
2021/09/06 10:52:46;;;;;;;6.93;5.63;;;24.60;98.40;;;;;;5067583;28;20028;-78
2021/09/06 10:55:13;;;;;;;6.30;5.10;;;24.70;98.80;;;;;;5062955;28;20031;-80
2021/09/06 10:57:40;;;;;;;5.78;5.25;;;24.80;98.80;;;;;;5067317;28;20108;-77
2021/09/06 11:00:07;;;;;;;6.15;5.60;;;25.00;98.00;;;;;;5061831;28;20024;-77
2021/09/06 11:02:35;;;;;;;5.68;4.90;;;25.20;96.30;;;;;;5062188;28;20025;-77
2021/09/06 11:05:02;;;;;;;7.18;5.68;;;25.00;96.50;;;;;;5055631;28;20471;-78
2021/09/06 11:07:27;;;;;;;5.53;5.03;;;25.00;95.60;;;;;;5053461;28;20546;-78
2021/09/06 11:09:53;;;;;;;6.15;5.65;;;25.00;95.90;;;;;;5064569;28;20024;-77
2021/09/06 11:12:18;;;;;;;6.53;5.05;;;25.00;96.00;;;;;;5070631;28;20419;-78
2021/09/06 11:14:46;;;;;;;5.72;5.05;;;25.10;95.80;;;;;;5066642;28;20021;-77
2021/09/06 11:17:15;;;;;;;6.55;5.82;;;25.20;95.90;;;;;;5067703;28;20057;-76
2021/09/06 11:19:40;;;;;;;5.95;5.45;;;25.50;95.60;;;;;;5091165;28;20047;-75
2021/09/06 11:22:06;;;;;;;6.05;5.22;;;25.70;95.30;;;;;;5089933;28;20503;-75
2021/09/06 11:24:32;;;;;;;5.22;4.72;;;25.80;95.20;;;;;;5082634;28;20039;-76
2021/09/06 11:26:58;;;;;;;7.45;4.97;;;25.80;94.10;;;;;;5076069;28;20052;-77
2021/09/06 11:29:23;;;;;;;5.50;5.00;;;25.60;94.40;;;;;;5083527;28;20534;-75
2021/09/06 11:31:50;;;;;;;6.18;5.57;;;25.70;93.90;;;;;;5086318;28;20104;-76
2021/09/06 11:34:22;;;;;;;4.82;4.32;;;25.80;93.80;;;;;;5083597;28;20016;-75
2021/09/06 11:36:47;;;;;;;5.50;4.97;;;25.70;93.50;;;;;;5083422;28;20021;-75
2021/09/06 11:39:13;;;;;;;5.70;5.13;;;25.70;93.60;;;;;;5093556;28;20013;-75
2021/09/06 11:41:39;;;;;;;5.25;4.75;;;26.00;93.10;;;;;;5086607;28;20017;-75
2021/09/06 11:44:06;;;;;;;5.07;4.57;;;26.00;93.00;;;;;;5097155;28;20028;-76
2021/09/06 11:46:33;;;;;;;5.65;5.18;;;26.10;92.30;;;;;;5091265;28;20021;-75
2021/09/06 11:49:01;;;;;;;6.05;5.28;;;25.90;92.00;;;;;;5071833;28;20436;-76
2021/09/06 11:51:27;;;;;;;6.30;4.63;;;25.80;92.80;;;;;;5061627;28;20025;-76
2021/09/06 11:54:01;;;;;;;5.65;5.05;;;26.00;92.20;;;;;;5067388;28;20139;-77
2021/09/06 11:56:27;;;;;;;6.05;4.95;;;26.00;91.70;;;;;;5071658;28;20341;-77
2021/09/06 11:58:56;;;;;;;5.35;4.35;;;25.80;92.10;;;;;;5081508;28;20025;-77
2021/09/06 12:01:23;;;;;;;5.63;4.90;;;25.70;92.40;;;;;;5082794;28;20055;-77
2021/09/06 12:03:48;;;;;;;5.05;4.65;;;25.80;92.70;;;;;;5082771;28;20072;-78
2021/09/06 12:06:17;;;;;;;5.70;4.63;;;25.80;91.00;;;;;;5082385;28;20021;-77
2021/09/06 12:08:53;;;;;;;4.47;4.07;;;26.00;90.10;;;;;;5091705;28;20021;-77
2021/09/06 12:11:19;;;;;;;6.10;4.93;;;26.20;88.20;;;;;;5083381;28;20048;-77
2021/09/06 12:13:56;;;;;;;5.20;4.70;;;26.40;88.50;;;;;;5087915;28;20036;-78
2021/09/06 12:16:27;;;;;;;6.85;5.35;;;26.40;88.50;;;;;;5094397;28;20012;-78
2021/09/06 12:18:53;;;;;;;7.18;4.88;;;26.50;88.90;;;;;;5098440;28;20040;-77
2021/09/06 12:21:19;;;;;;;6.65;4.85;;;26.50;88.30;;;;;;5094417;28;20439;-77
2021/09/06 12:23:48;;;;;;;4.95;4.45;;;26.70;87.10;;;;;;5075672;28;20028;-76
2021/09/06 12:26:14;;;;;;;7.55;4.60;;;26.90;88.90;;;;;;5078238;28;20028;-78
2021/09/06 12:28:56;;;;;;;5.20;4.70;;;27.00;86.50;;;;;;5071630;28;20033;-77
2021/09/06 12:31:28;;;;;;;5.10;4.60;;;27.10;87.40;;;;;;5042056;28;20021;-76
2021/09/06 12:33:53;;;;;;;6.07;5.00;;;27.00;87.60;;;;;;5057145;28;20061;-76
2021/09/06 12:36:22;;;;;;;5.30;4.80;;;26.90;88.10;;;;;;5040787;28;20037;-76
2021/09/06 12:38:48;;;;;;;6.63;5.20;;;26.80;87.30;;;;;;5041228;28;20026;-77
2021/09/06 12:41:14;;;;;;;5.22;4.55;;;26.80;87.30;;;;;;5046764;28;20028;-76